PWSweather.com
Personal Weather Stations
Station Observations
WISCHPK61
Green Bay Schmitt Park, Green Bay, WI 54311

Green Bay Schmitt ParkGreen Bay, WI 54311

Lat: 44.514277, Lon: -87.935067

Elevation: 735

Station Type: Acu Rite Pro Weather Center model 02032C

http://greenbayweathercam.com

High Low Average
Temperature 35.1°F1.7°C 0.3°F-17.6°C 13.6°F-10.2°C
Dew Point 34.9°F1.6°C -2.9°F-19.4°C 11.9°F-11.2°C
Winds Calm Calm Calm Calm Calm SWCalm SW
Wind Gusts 3.5 mph5.6 kmh -- --
Humidity 99% 44% 94%
Pressure 29.68 in1005.1 mb 29.51 in999.3 mb -
Precipitation 0.00 in0.0 mm - -
Hour Temp Dew Point Humidity Winds Wind Gusts Pressure Precip Precip Rate Daily Precip Total
12:00 AM 11.1°F-11.6°C 10.9°F-11.7°C 99% Calm Calm -- 29.50 in999.0 mb - 0.00 in0.0 mm 0.00 in0.0 mm
01:00 AM 8.1°F-13.3°C 7.9°F-13.4°C 99% Calm Calm -- 29.51 in999.3 mb - 0.00 in0.0 mm 0.00 in0.0 mm
02:00 AM 6.1°F-14.4°C 5.9°F-14.5°C 99% Calm Calm -- 29.54 in1000.3 mb - 0.00 in0.0 mm 0.00 in0.0 mm
03:00 AM 5.0°F-15.0°C 4.8°F-15.1°C 99% Calm Calm -- 29.56 in1001.0 mb - 0.00 in0.0 mm 0.00 in0.0 mm
04:00 AM 3.2°F-16.0°C -2.9°F-19.4°C 75% Calm Calm -- 29.57 in1001.4 mb - 0.00 in0.0 mm 0.00 in0.0 mm
05:00 AM 2.3°F-16.5°C 2.1°F-16.6°C 99% Calm Calm -- 29.59 in1002.0 mb - 0.00 in0.0 mm 0.00 in0.0 mm
06:00 AM 1.2°F-17.1°C 1.0°F-17.2°C 99% Calm Calm -- 29.61 in1002.7 mb - 0.00 in0.0 mm 0.00 in0.0 mm
07:00 AM 0.3°F-17.6°C 0.1°F-17.7°C 99% Calm Calm -- 29.63 in1003.4 mb - 0.00 in0.0 mm 0.00 in0.0 mm
08:00 AM 0.4°F-17.6°C 0.2°F-17.7°C 99% Calm Calm -- 29.64 in1003.7 mb - 0.00 in0.0 mm 0.00 in0.0 mm
09:00 AM 7.2°F-13.8°C 2.9°F-16.2°C 82% Calm Calm -- 29.66 in1004.4 mb - 0.00 in0.0 mm 0.00 in0.0 mm
10:00 AM 16.6°F-8.6°C 16.3°F-8.7°C 99% Calm Calm -- 29.68 in1005.1 mb - 0.00 in0.0 mm 0.00 in0.0 mm
11:00 AM 21.4°F-5.9°C 21.1°F-6.1°C 99% Calm Calm -- 29.67 in1004.7 mb - 0.00 in0.0 mm 0.00 in0.0 mm
12:00 PM 28.5°F-1.9°C 28.2°F-2.1°C 99% Calm Calm -- 29.68 in1005.1 mb - 0.00 in0.0 mm 0.00 in0.0 mm
01:00 PM 32.7°F0.4°C 32.5°F0.3°C 99% Calm Calm -- 29.67 in1004.7 mb - 0.00 in0.0 mm 0.00 in0.0 mm
02:00 PM 35.1°F1.7°C 34.9°F1.6°C 99% Calm Calm 3.5 mph5.6 kmh 29.66 in1004.4 mb - 0.00 in0.0 mm 0.00 in0.0 mm
03:00 PM 30.6°F-0.8°C 11.2°F-11.6°C 44% Calm Calm -- 29.64 in1003.7 mb - 0.00 in0.0 mm 0.00 in0.0 mm
04:00 PM 26.3°F-3.2°C 26.1°F-3.3°C 99% Calm Calm -- 29.63 in1003.4 mb - 0.00 in0.0 mm 0.00 in0.0 mm
05:00 PM 21.7°F-5.7°C 21.4°F-5.9°C 99% Calm Calm -- 29.61 in1002.7 mb - 0.00 in0.0 mm 0.00 in0.0 mm
06:00 PM 18.5°F-7.5°C 18.3°F-7.6°C 99% Calm Calm -- 29.59 in1002.0 mb - 0.00 in0.0 mm 0.00 in0.0 mm
07:00 PM 14.9°F-9.5°C 14.7°F-9.6°C 99% Calm Calm -- 29.57 in1001.4 mb - 0.00 in0.0 mm 0.00 in0.0 mm
08:00 PM 12.2°F-11.0°C 12.0°F-11.1°C 99% Calm Calm -- 29.57 in1001.4 mb - 0.00 in0.0 mm 0.00 in0.0 mm
09:00 PM 10.3°F-12.1°C 10.1°F-12.2°C 99% Calm Calm -- 29.57 in1001.4 mb - 0.00 in0.0 mm 0.00 in0.0 mm
10:00 PM 9.1°F-12.7°C 3.4°F-15.9°C 77% Calm Calm -- 29.56 in1001.0 mb - 0.00 in0.0 mm 0.00 in0.0 mm
11:00 PM 7.7°F-13.5°C 7.5°F-13.6°C 99% Calm Calm -- 29.56 in1001.0 mb - 0.00 in0.0 mm 0.00 in0.0 mm